Time;durP1;ratioP1;P1;durP2;ratioP2;P2;SDS_P1;SDS_P2;PMS_P1;PMS_P2;Temp;Humidity;BMP_temperature;BMP_pressure;BME280_temperature;BME280_humidity;BME280_pressure;Samples;Min_cycle;Max_cycle;Signal;HPM_P1;HPM_P2
2022/09/06 00:00:14;;;;;;;3.80;3.40;;;;;;;17.85;56.03;95567.03;5005431;28;20209;-68
2022/09/06 00:02:40;;;;;;;3.92;3.63;;;;;;;17.86;56.34;95568.72;5008999;28;20274;-68
2022/09/06 00:05:07;;;;;;;4.20;3.15;;;;;;;17.89;55.95;95563.00;5018503;28;20246;-68
2022/09/06 00:07:33;;;;;;;3.90;3.63;;;;;;;17.93;55.85;95566.13;5006058;28;20317;-68
2022/09/06 00:10:00;;;;;;;4.10;3.50;;;;;;;17.82;56.33;95568.22;5008630;28;20787;-68
2022/09/06 00:12:25;;;;;;;4.13;3.72;;;;;;;17.75;56.38;95567.28;5014047;28;20195;-68
2022/09/06 00:14:51;;;;;;;4.20;3.35;;;;;;;17.79;56.03;95563.28;5014969;28;20354;-68
2022/09/06 00:17:17;;;;;;;3.80;3.38;;;;;;;17.90;56.08;95571.81;5004569;28;20225;-68
2022/09/06 00:19:42;;;;;;;3.92;3.58;;;;;;;17.92;56.01;95575.94;5011899;28;20726;-66
2022/09/06 00:22:08;;;;;;;4.35;3.30;;;;;;;17.77;56.05;95573.22;5018994;28;20218;-66
2022/09/06 00:24:35;;;;;;;4.00;3.30;;;;;;;17.69;56.48;95570.66;5012305;28;20239;-66
2022/09/06 00:27:02;;;;;;;4.05;3.65;;;;;;;17.60;56.97;95558.47;5006470;28;20215;-67
2022/09/06 00:29:27;;;;;;;3.40;3.10;;;;;;;17.67;56.78;95563.88;5009733;28;20222;-67
2022/09/06 00:31:53;;;;;;;5.60;3.45;;;;;;;17.41;57.43;95557.16;5009729;28;20222;-67
2022/09/06 00:34:18;;;;;;;3.33;3.03;;;;;;;17.62;56.70;95559.94;5011693;28;20223;-67
2022/09/06 00:36:43;;;;;;;4.00;3.10;;;;;;;17.59;56.69;95568.28;5012954;28;20241;-67
2022/09/06 00:39:09;;;;;;;5.72;3.28;;;;;;;17.51;57.07;95562.19;5011381;28;20190;-67
2022/09/06 00:41:34;;;;;;;3.15;2.95;;;;;;;17.59;56.94;95567.47;5007105;28;20231;-67
2022/09/06 00:44:00;;;;;;;3.88;3.00;;;;;;;17.63;56.70;95564.25;5010344;28;20274;-67
2022/09/06 00:46:29;;;;;;;4.45;3.05;;;;;;;17.66;56.39;95564.91;5011965;28;20218;-67
2022/09/06 00:48:59;;;;;;;3.92;2.70;;;;;;;17.63;56.22;95558.91;5010255;28;20250;-67
2022/09/06 00:51:28;;;;;;;2.85;2.65;;;;;;;17.68;56.15;95561.03;5007451;28;20210;-67
2022/09/06 00:53:54;;;;;;;3.15;2.90;;;;;;;17.66;56.08;95562.22;5010857;28;20227;-67
2022/09/06 00:56:19;;;;;;;3.75;3.10;;;;;;;17.68;56.05;95555.72;5009901;28;20591;-67
2022/09/06 00:58:47;;;;;;;3.92;3.03;;;;;;;17.63;56.25;95556.25;5011493;28;20233;-67
2022/09/06 01:01:12;;;;;;;3.63;3.10;;;;;;;17.53;56.64;95558.34;5004367;28;20215;-67
2022/09/06 01:03:38;;;;;;;3.58;3.28;;;;;;;17.57;56.66;95570.28;5010482;28;20203;-66
2022/09/06 01:06:13;;;;;;;3.10;2.90;;;;;;;17.45;56.94;95576.22;5002184;28;20286;-67
2022/09/06 01:08:50;;;;;;;3.45;3.20;;;;;;;17.50;56.77;95571.19;5004716;28;20231;-70
2022/09/06 01:11:51;;;;;;;5.50;3.65;;;;;;;17.40;57.01;95564.31;5006834;28;20237;-65
2022/09/06 01:14:44;;;;;;;3.58;3.30;;;;;;;17.41;57.36;95573.13;4967732;28;20335;-67
2022/09/06 01:17:44;;;;;;;3.70;2.88;;;;;;;17.24;57.73;95572.44;4963865;28;20232;-64
2022/09/06 01:20:22;;;;;;;4.28;3.30;;;;;;;17.24;57.78;95571.59;4952218;28;20235;-66
2022/09/06 01:23:05;;;;;;;3.72;3.45;;;;;;;17.09;58.39;95567.06;4962127;28;20227;-66
2022/09/06 01:25:48;;;;;;;3.65;3.35;;;;;;;16.94;59.29;95569.66;4943491;28;20316;-65
2022/09/06 01:28:32;;;;;;;3.40;3.10;;;;;;;17.05;58.57;95565.75;4950092;28;20224;-66
2022/09/06 01:31:22;;;;;;;3.60;3.30;;;;;;;17.02;58.82;95566.13;4950866;28;20608;-63
2022/09/06 01:34:07;;;;;;;5.53;3.25;;;;;;;17.14;58.15;95563.88;4950569;28;20313;-64
2022/09/06 01:36:45;;;;;;;4.43;3.10;;;;;;;17.12;58.24;95566.72;4949868;28;20271;-66
2022/09/06 01:39:21;;;;;;;3.38;3.15;;;;;;;17.20;58.32;95569.28;4948568;28;20235;-66
2022/09/06 01:41:47;;;;;;;3.47;2.85;;;;;;;17.06;58.52;95558.66;4962629;28;20239;-65
2022/09/06 01:44:12;;;;;;;3.50;3.00;;;;;;;17.04;58.94;95558.00;4953319;28;20238;-65
2022/09/06 01:46:49;;;;;;;3.85;3.47;;;;;;;17.04;58.76;95548.19;4947630;28;20225;-67
2022/09/06 01:49:39;;;;;;;5.07;3.50;;;;;;;17.02;59.14;95542.22;4954217;28;20823;-66
2022/09/06 01:52:17;;;;;;;4.82;3.20;;;;;;;16.71;59.64;95542.28;5014691;28;20218;-67
2022/09/06 01:54:55;;;;;;;3.90;3.50;;;;;;;16.81;59.59;95542.06;5003415;28;20236;-64
2022/09/06 01:57:49;;;;;;;4.70;3.33;;;;;;;16.96;58.99;95540.28;5003583;28;20207;-64
2022/09/06 02:00:17;;;;;;;5.72;3.53;;;;;;;16.88;59.22;95538.50;5008398;28;20218;-65
2022/09/06 02:03:06;;;;;;;5.25;3.45;;;;;;;16.78;59.46;95537.91;5006967;28;20231;-67
2022/09/06 02:05:38;;;;;;;4.32;3.50;;;;;;;16.83;59.18;95537.41;5008178;28;20288;-66
2022/09/06 02:08:10;;;;;;;3.90;3.60;;;;;;;16.81;59.09;95539.41;5013080;28;20277;-63
2022/09/06 02:10:44;;;;;;;5.53;3.60;;;;;;;16.85;59.45;95541.53;4996253;28;20231;-65
2022/09/06 02:13:13;;;;;;;3.58;3.22;;;;;;;16.72;60.12;95534.13;5004233;28;20222;-67
2022/09/06 02:15:46;;;;;;;4.03;3.20;;;;;;;16.75;59.46;95531.09;5006798;28;20207;-66
2022/09/06 02:18:16;;;;;;;4.45;3.10;;;;;;;16.67;59.62;95536.47;5007846;28;20234;-67
2022/09/06 02:20:51;;;;;;;3.80;3.30;;;;;;;16.56;59.86;95536.06;5009067;28;20751;-68
2022/09/06 02:23:19;;;;;;;3.47;3.20;;;;;;;16.47;60.15;95544.06;5011338;28;20226;-68
2022/09/06 02:26:05;;;;;;;3.42;3.13;;;;;;;16.46;60.21;95539.75;4997133;28;20251;-67
2022/09/06 02:28:31;;;;;;;3.28;3.03;;;;;;;16.45;60.14;95543.41;4992301;28;20227;-67
2022/09/06 02:31:01;;;;;;;4.05;3.22;;;;;;;16.41;60.40;95541.28;4993338;28;20207;-68
2022/09/06 02:33:31;;;;;;;3.78;3.30;;;;;;;16.48;60.29;95542.25;4990115;28;20211;-68
2022/09/06 02:36:03;;;;;;;4.22;3.40;;;;;;;16.41;60.19;95546.59;4997672;28;20230;-70
2022/09/06 02:38:32;;;;;;;3.63;3.33;;;;;;;16.42;60.45;95540.31;4990184;28;20289;-63
2022/09/06 02:40:58;;;;;;;4.45;3.28;;;;;;;16.42;60.32;95545.59;4992060;28;20220;-67
2022/09/06 02:43:24;;;;;;;3.25;3.03;;;;;;;16.31;60.76;95552.97;4990090;28;20224;-63
2022/09/06 02:45:49;;;;;;;3.88;3.28;;;;;;;16.32;60.82;95549.28;4991601;28;20321;-64
2022/09/06 02:48:14;;;;;;;4.75;3.38;;;;;;;16.37;60.88;95556.75;4991343;28;20215;-72
2022/09/06 02:50:40;;;;;;;5.18;3.58;;;;;;;16.29;60.94;95554.13;4985795;28;20711;-68
2022/09/06 02:53:09;;;;;;;3.38;3.10;;;;;;;16.28;61.17;95563.09;4983649;28;20216;-67
2022/09/06 02:55:34;;;;;;;4.40;3.38;;;;;;;16.31;61.17;95555.63;4977204;28;20311;-67
2022/09/06 02:58:00;;;;;;;4.53;3.63;;;;;;;16.09;61.59;95559.00;4989126;28;20207;-67
2022/09/06 03:00:26;;;;;;;6.35;3.88;;;;;;;16.02;62.28;95560.72;4980481;28;20287;-63
2022/09/06 03:02:52;;;;;;;7.05;3.35;;;;;;;16.13;61.64;95549.72;4994112;28;20243;-67
2022/09/06 03:05:17;;;;;;;3.65;3.35;;;;;;;16.17;61.84;95551.06;4995795;28;20255;-67
2022/09/06 03:07:43;;;;;;;5.82;3.53;;;;;;;16.14;61.60;95553.19;4991032;28;20278;-65
2022/09/06 03:10:08;;;;;;;4.85;3.38;;;;;;;16.18;61.46;95552.69;4990848;28;20220;-67
2022/09/06 03:12:34;;;;;;;3.72;3.08;;;;;;;16.26;61.29;95544.69;4996901;28;20269;-68
2022/09/06 03:14:59;;;;;;;3.85;3.40;;;;;;;16.17;61.31;95545.75;4991238;28;20562;-66
2022/09/06 03:17:25;;;;;;;3.65;3.35;;;;;;;16.20;61.36;95545.41;4991310;28;20220;-70
2022/09/06 03:19:50;;;;;;;4.18;3.83;;;;;;;16.05;61.63;95558.53;4992161;28;20318;-66
2022/09/06 03:22:16;;;;;;;3.75;3.33;;;;;;;16.06;61.84;95554.06;4983977;28;20283;-67
2022/09/06 03:24:41;;;;;;;3.92;3.63;;;;;;;15.96;62.02;95553.44;5001443;28;20232;-66
2022/09/06 03:27:06;;;;;;;4.20;3.90;;;;;;;15.97;61.76;95553.28;5021044;28;20195;-63
2022/09/06 03:29:32;;;;;;;4.22;3.80;;;;;;;15.87;61.98;95550.81;5007767;28;20298;-68
2022/09/06 03:31:57;;;;;;;5.00;4.03;;;;;;;15.77;62.59;95555.50;5012597;28;20226;-70
2022/09/06 03:34:24;;;;;;;5.60;4.10;;;;;;;15.73;62.46;95556.84;5013540;28;20218;-70
2022/09/06 03:36:49;;;;;;;4.38;3.97;;;;;;;15.65;63.19;95567.44;5026846;28;20227;-68
2022/09/06 03:39:14;;;;;;;4.15;3.70;;;;;;;15.77;63.17;95571.44;5011240;28;20225;-70
2022/09/06 03:41:40;;;;;;;5.22;4.65;;;;;;;15.71;62.83;95560.66;5006372;28;20750;-63
2022/09/06 03:44:05;;;;;;;4.40;4.00;;;;;;;15.61;63.47;95561.66;5003369;28;20275;-68
2022/09/06 03:46:31;;;;;;;5.68;4.30;;;;;;;15.52;64.10;95572.44;5012127;28;20230;-67
2022/09/06 03:48:57;;;;;;;6.53;4.53;;;;;;;15.64;63.88;95571.09;5011385;28;20214;-67
2022/09/06 03:51:23;;;;;;;8.90;4.90;;;;;;;15.56;63.91;95573.78;5015800;28;20202;-66
2022/09/06 03:53:48;;;;;;;7.40;5.50;;;;;;;15.56;63.75;95571.13;4998187;28;20329;-67
2022/09/06 03:56:14;;;;;;;7.95;4.78;;;;;;;15.44;64.19;95571.44;5010603;28;20226;-64
2022/09/06 03:58:39;;;;;;;7.13;4.90;;;;;;;15.56;64.12;95579.06;5008595;28;20314;-64
2022/09/06 04:01:07;;;;;;;8.45;4.38;;;;;;;15.57;64.14;95575.41;5010119;28;20277;-67
2022/09/06 04:03:34;;;;;;;7.97;5.38;;;;;;;15.76;63.62;95575.06;5010706;28;20680;-66
2022/09/06 04:05:59;;;;;;;5.85;5.25;;;;;;;15.90;63.28;95581.47;5009037;28;20230;-67
2022/09/06 04:08:25;;;;;;;6.40;4.75;;;;;;;15.82;63.21;95578.84;5010393;28;20456;-67
2022/09/06 04:10:55;;;;;;;6.97;5.03;;;;;;;15.55;64.16;95575.56;5009109;28;20254;-67
2022/09/06 04:13:22;;;;;;;6.72;4.55;;;;;;;15.64;64.05;95585.16;5011985;28;20242;-70
2022/09/06 04:15:47;;;;;;;7.20;4.72;;;;;;;15.55;64.68;95582.69;5014087;28;20211;-67
2022/09/06 04:18:14;;;;;;;6.78;4.82;;;;;;;15.44;65.11;95582.03;5000976;28;20253;-68
2022/09/06 04:20:39;;;;;;;6.75;5.00;;;;;;;15.59;64.57;95582.19;5004608;28;20219;-65
2022/09/06 04:23:05;;;;;;;6.32;4.95;;;;;;;15.83;63.84;95583.16;4999262;28;20237;-65
2022/09/06 04:25:30;;;;;;;7.95;4.93;;;;;;;15.85;63.89;95583.81;5008351;28;20251;-67
2022/09/06 04:27:56;;;;;;;6.65;5.25;;;;;;;15.81;64.26;95582.50;5008203;28;20217;-70
2022/09/06 04:30:21;;;;;;;9.07;5.20;;;;;;;15.74;64.27;95582.34;5012912;28;20211;-68
2022/09/06 04:32:47;;;;;;;6.55;5.10;;;;;;;15.63;64.53;95582.69;5011385;28;20293;-67
2022/09/06 04:35:12;;;;;;;6.53;5.10;;;;;;;15.68;64.44;95584.81;5013757;28;20229;-67
2022/09/06 04:37:38;;;;;;;6.00;5.20;;;;;;;15.61;64.83;95582.00;5011054;28;20237;-67
2022/09/06 04:40:04;;;;;;;6.65;5.47;;;;;;;15.50;65.42;95580.53;5009472;28;20226;-67
2022/09/06 04:42:29;;;;;;;8.13;5.78;;;;;;;15.80;64.44;95589.63;5013637;28;20297;-67
2022/09/06 04:44:55;;;;;;;6.78;6.07;;;;;;;15.81;64.55;95583.31;5008472;28;20222;-66
2022/09/06 04:47:20;;;;;;;7.78;5.47;;;;;;;15.76;64.52;95582.19;5008075;28;20744;-67
2022/09/06 04:49:48;;;;;;;6.03;5.47;;;;;;;15.66;64.90;95577.03;5011319;28;20230;-67
2022/09/06 04:52:13;;;;;;;6.22;5.60;;;;;;;15.64;65.15;95581.69;5008820;28;20226;-67
2022/09/06 04:54:39;;;;;;;8.45;6.22;;;;;;;15.60;65.45;95585.66;5015063;28;20298;-67
2022/09/06 04:57:04;;;;;;;6.90;6.22;;;;;;;15.70;64.96;95573.09;5006866;28;20318;-67
2022/09/06 04:59:30;;;;;;;9.02;5.95;;;;;;;15.70;65.16;95578.41;5010198;28;20222;-67
2022/09/06 05:01:55;;;;;;;7.85;5.35;;;;;;;15.75;65.15;95568.09;5011193;28;20242;-71
2022/09/06 05:04:21;;;;;;;7.30;5.97;;;;;;;15.93;64.37;95578.50;5008979;28;20253;-71
2022/09/06 05:06:46;;;;;;;6.45;5.95;;;;;;;15.93;64.27;95575.00;5005571;28;20746;-67
2022/09/06 05:09:12;;;;;;;7.00;5.88;;;;;;;15.98;64.06;95575.31;4997230;28;20215;-67
2022/09/06 05:11:37;;;;;;;7.55;6.03;;;;;;;15.97;64.02;95571.84;5006757;28;20256;-67
2022/09/06 05:14:03;;;;;;;6.53;5.65;;;;;;;16.04;63.70;95569.34;5003771;28;20231;-67
2022/09/06 05:16:28;;;;;;;7.95;5.32;;;;;;;16.18;63.34;95573.91;5006324;28;20302;-70
2022/09/06 05:18:54;;;;;;;6.80;5.80;;;;;;;16.17;63.49;95569.63;5009204;28;20534;-66
2022/09/06 05:21:19;;;;;;;7.03;5.95;;;;;;;16.19;63.54;95569.44;5014397;28;20206;-63
2022/09/06 05:23:45;;;;;;;6.28;5.43;;;;;;;16.03;63.75;95565.03;5004590;28;20262;-67
2022/09/06 05:26:10;;;;;;;6.32;5.60;;;;;;;16.15;63.91;95563.66;5007696;28;20277;-64
2022/09/06 05:28:35;;;;;;;8.38;6.13;;;;;;;16.34;62.80;95566.88;5010335;28;20234;-67
2022/09/06 05:31:27;;;;;;;6.57;5.93;;;;;;;16.26;63.11;95559.78;5012054;28;20206;-70
2022/09/06 05:33:53;;;;;;;6.65;5.97;;;;;;;16.40;63.02;95568.84;4994767;28;20767;-72
2022/09/06 05:36:22;;;;;;;6.93;6.22;;;;;;;16.45;62.78;95564.66;5009262;28;20207;-66
2022/09/06 05:38:47;;;;;;;8.40;6.88;;;;;;;16.49;62.77;95565.13;5011139;28;20302;-66
2022/09/06 05:41:12;;;;;;;6.75;6.15;;;;;;;16.56;63.04;95565.25;5009408;28;20364;-66
2022/09/06 05:43:38;;;;;;;8.48;6.40;;;;;;;16.56;62.70;95570.56;4995571;28;20233;-67
2022/09/06 05:46:03;;;;;;;6.57;5.95;;;;;;;16.69;62.29;95571.66;5006776;28;20214;-67
2022/09/06 05:48:29;;;;;;;7.10;6.28;;;;;;;16.72;62.50;95576.59;5000833;28;20293;-63
2022/09/06 05:51:03;;;;;;;6.47;5.88;;;;;;;16.76;62.35;95582.41;4999051;28;20353;-63
2022/09/06 05:53:37;;;;;;;7.03;6.43;;;;;;;16.66;62.42;95572.00;5001633;28;20227;-62
2022/09/06 05:56:03;;;;;;;6.85;6.25;;;;;;;16.77;62.01;95565.50;5012466;28;20238;-62
2022/09/06 05:58:29;;;;;;;7.35;6.03;;;;;;;16.82;62.03;95559.66;5010222;28;20234;-62
2022/09/06 06:01:22;;;;;;;7.45;6.75;;;;;;;16.97;61.39;95557.84;5009531;28;20234;-62
2022/09/06 06:03:58;;;;;;;9.80;6.57;;;;;;;17.08;60.91;95562.78;5011049;28;20219;-62
2022/09/06 06:06:25;;;;;;;7.97;6.55;;;;;;;16.97;61.39;95553.41;5011996;28;20223;-63
2022/09/06 06:08:51;;;;;;;7.47;6.80;;;;;;;16.96;61.20;95553.56;5014623;28;20272;-63
2022/09/06 06:11:16;;;;;;;7.90;7.10;;;;;;;16.97;61.21;95556.06;5012326;28;20733;-70
2022/09/06 06:13:43;;;;;;;9.73;6.82;;;;;;;17.02;60.82;95550.19;5001543;28;20739;-70
2022/09/06 06:16:10;;;;;;;9.43;7.50;;;;;;;17.10;60.67;95550.13;5001770;28;20373;-69
2022/09/06 06:18:37;;;;;;;11.20;7.18;;;;;;;17.01;60.55;95551.19;5009705;28;20212;-63
2022/09/06 06:21:28;;;;;;;10.15;7.30;;;;;;;17.22;59.89;95547.88;5019747;28;20243;-63
2022/09/06 06:24:03;;;;;;;9.40;8.13;;;;;;;17.15;60.15;95545.09;4967106;28;20262;-63
2022/09/06 06:26:32;;;;;;;11.43;7.22;;;;;;;17.35;59.67;95547.25;4936653;28;20263;-63
2022/09/06 06:29:01;;;;;;;9.93;8.13;;;;;;;17.39;59.43;95537.91;4953055;28;20224;-63
2022/09/06 06:31:30;;;;;;;7.55;6.82;;;;;;;17.54;58.67;95540.59;4974403;28;20240;-63
2022/09/06 06:33:57;;;;;;;9.98;7.72;;;;;;;17.61;58.92;95547.66;4947301;28;20227;-66
2022/09/06 06:36:24;;;;;;;8.07;7.03;;;;;;;17.66;58.62;95544.44;4957979;28;20223;-66
2022/09/06 06:38:53;;;;;;;8.50;7.60;;;;;;;17.24;60.05;95548.53;4953907;28;21121;-67
2022/09/06 06:41:22;;;;;;;7.80;6.93;;;;;;;17.56;59.27;95536.75;4972781;28;20224;-69
2022/09/06 06:44:00;;;;;;;9.00;7.82;;;;;;;17.69;58.66;95536.09;4953224;28;20335;-71
2022/09/06 06:46:29;;;;;;;7.65;6.97;;;;;;;17.72;58.84;95534.91;4968049;28;20260;-70
2022/09/06 06:48:54;;;;;;;8.65;7.82;;;;;;;17.77;58.06;95538.66;4953230;28;20357;-70
2022/09/06 06:51:21;;;;;;;7.63;7.03;;;;;;;17.80;57.98;95541.00;4951904;28;20204;-71
2022/09/06 06:53:47;;;;;;;7.80;7.05;;;;;;;17.84;58.00;95544.94;4946652;28;20583;-69
2022/09/06 06:56:16;;;;;;;11.27;8.18;;;;;;;18.01;57.65;95542.91;4952001;28;20224;-73
2022/09/06 06:58:42;;;;;;;9.00;7.13;;;;;;;17.98;57.08;95532.63;4967430;28;20259;-71
2022/09/06 07:01:08;;;;;;;9.45;7.80;;;;;;;18.13;57.42;95553.09;4996451;28;20238;-70
2022/09/06 07:03:35;;;;;;;8.55;7.85;;;;;;;18.17;57.74;95539.22;5012479;28;20204;-67
2022/09/06 07:06:01;;;;;;;8.88;8.05;;;;;;;18.35;57.01;95541.47;5023357;28;20227;-69
2022/09/06 07:08:26;;;;;;;11.02;7.50;;;;;;;18.34;57.02;95545.16;5011414;28;20723;-70
2022/09/06 07:10:52;;;;;;;8.60;7.70;;;;;;;18.37;56.62;95542.13;5010614;28;20237;-71
2022/09/06 07:13:18;;;;;;;8.13;7.32;;;;;;;18.39;55.89;95549.91;5009968;28;20214;-70
2022/09/06 07:15:43;;;;;;;9.13;8.27;;;;;;;18.46;55.53;95543.66;5006636;28;20374;-66
2022/09/06 07:18:09;;;;;;;8.85;8.05;;;;;;;18.47;55.46;95555.97;5008201;28;20563;-67
2022/09/06 07:20:34;;;;;;;9.80;8.80;;;;;;;18.57;55.37;95557.50;5010766;28;20231;-66
2022/09/06 07:23:04;;;;;;;9.07;8.23;;;;;;;18.70;55.60;95552.31;4999734;28;20223;-69
2022/09/06 07:25:30;;;;;;;8.80;8.00;;;;;;;18.64;55.47;95555.75;4999049;28;20238;-71
2022/09/06 07:28:00;;;;;;;11.05;8.07;;;;;;;18.60;55.44;95557.94;5009499;28;20502;-71
2022/09/06 07:30:26;;;;;;;8.63;7.72;;;;;;;18.68;55.23;95551.66;5011031;28;20314;-71
2022/09/06 07:32:51;;;;;;;10.35;7.82;;;;;;;18.78;55.28;95546.91;5008740;28;20313;-70
2022/09/06 07:35:19;;;;;;;9.15;8.25;;;;;;;18.94;54.98;95551.97;5009958;28;20258;-70
2022/09/06 07:37:51;;;;;;;8.57;7.68;;;;;;;19.05;54.75;95552.47;5009108;28;21125;-69
2022/09/06 07:40:16;;;;;;;8.18;7.43;;;;;;;19.16;53.86;95562.63;5017235;28;20286;-70
2022/09/06 07:42:42;;;;;;;8.57;7.78;;;;;;;19.08;53.86;95552.09;4996950;28;20200;-70
2022/09/06 07:45:08;;;;;;;9.48;8.30;;;;;;;19.07;54.42;95551.28;5010287;28;20700;-69
2022/09/06 07:47:33;;;;;;;9.38;7.80;;;;;;;19.19;54.40;95554.22;5007975;28;20224;-69
2022/09/06 07:49:59;;;;;;;10.27;8.20;;;;;;;19.09;54.71;95556.44;5007727;28;20289;-70
2022/09/06 07:52:25;;;;;;;9.00;8.10;;;;;;;19.10;54.67;95558.06;5004967;28;20310;-70
2022/09/06 07:54:51;;;;;;;8.23;7.53;;;;;;;19.22;54.59;95551.22;5010114;28;20218;-70
2022/09/06 07:57:16;;;;;;;7.90;7.15;;;;;;;19.30;53.57;95553.72;5010006;28;20309;-69
2022/09/06 07:59:41;;;;;;;7.25;6.55;;;;;;;19.35;53.65;95553.97;5011474;28;20227;-70
2022/09/06 08:02:07;;;;;;;8.65;7.03;;;;;;;19.34;52.94;95549.66;5010566;28;20342;-69
2022/09/06 08:04:32;;;;;;;8.55;7.30;;;;;;;19.34;53.49;95541.66;4999292;28;20227;-68
2022/09/06 08:06:58;;;;;;;7.38;6.65;;;;;;;19.40;53.85;95540.06;5005668;28;20195;-70
2022/09/06 08:09:23;;;;;;;7.22;6.63;;;;;;;19.34;54.53;95552.31;5000179;28;20237;-70
2022/09/06 08:11:49;;;;;;;8.57;6.68;;;;;;;19.44;53.08;95541.31;5007846;28;20286;-70
2022/09/06 08:14:15;;;;;;;7.30;6.60;;;;;;;19.58;51.59;95542.25;5009837;28;20223;-65
2022/09/06 08:16:40;;;;;;;7.20;6.60;;;;;;;19.60;52.06;95543.69;5007030;28;20759;-66
2022/09/06 08:19:11;;;;;;;7.30;6.60;;;;;;;19.51;52.90;95538.69;4998892;28;20224;-69
2022/09/06 08:21:37;;;;;;;7.72;7.00;;;;;;;19.67;52.75;95537.59;5009960;28;20763;-66
2022/09/06 08:24:06;;;;;;;7.60;6.90;;;;;;;19.75;52.68;95538.28;5002540;28;20310;-66
2022/09/06 08:26:34;;;;;;;7.30;6.60;;;;;;;19.78;51.05;95543.22;4997011;28;20231;-70
2022/09/06 08:29:02;;;;;;;7.70;6.78;;;;;;;19.91;51.08;95539.78;5005936;28;20755;-69
2022/09/06 08:31:30;;;;;;;7.25;6.50;;;;;;;20.01;52.64;95542.13;5016770;28;20226;-70
2022/09/06 08:33:56;;;;;;;7.78;6.72;;;;;;;20.04;51.44;95534.53;5000120;28;20238;-66
2022/09/06 08:36:25;;;;;;;7.57;6.82;;;;;;;19.94;52.18;95531.41;5002286;28;20322;-65
2022/09/06 08:38:51;;;;;;;7.28;6.60;;;;;;;20.01;52.57;95526.91;5006867;28;20219;-68
2022/09/06 08:41:24;;;;;;;9.43;6.80;;;;;;;20.15;51.42;95524.31;5006968;28;20644;-68
2022/09/06 08:44:02;;;;;;;8.88;6.93;;;;;;;20.19;51.29;95521.06;4997722;28;20243;-71
2022/09/06 08:46:39;;;;;;;6.53;5.88;;;;;;;20.24;51.82;95515.94;5005840;28;20742;-72
2022/09/06 08:49:06;;;;;;;7.22;6.63;;;;;;;20.32;50.80;95511.47;4998417;28;20213;-66
2022/09/06 08:51:44;;;;;;;8.40;6.85;;;;;;;20.32;51.06;95514.13;5003064;28;20215;-71
2022/09/06 08:54:37;;;;;;;8.25;7.45;;;;;;;20.53;52.09;95511.31;4998506;28;20813;-71
2022/09/06 08:57:06;;;;;;;6.20;5.60;;;;;;;20.52;49.53;95504.31;5004267;28;20699;-74
2022/09/06 08:59:39;;;;;;;7.55;5.38;;;;;;;20.53;49.54;95500.63;5007381;28;20306;-67
2022/09/06 09:02:18;;;;;;;7.15;6.45;;;;;;;20.70;50.49;95495.75;5006743;28;20770;-71
2022/09/06 09:04:59;;;;;;;7.47;5.32;;;;;;;20.92;49.55;95497.22;5005863;28;20879;-66
2022/09/06 09:08:02;;;;;;;6.22;5.18;;;;;;;21.04;48.57;95485.94;5009406;28;20226;-70
2022/09/06 09:10:39;;;;;;;6.50;4.95;;;;;;;20.99;49.10;95486.53;5003325;28;20856;-66
2022/09/06 09:13:08;;;;;;;8.10;4.65;;;;;;;21.09;48.28;95480.75;5007679;28;20286;-73
2022/09/06 09:15:35;;;;;;;4.95;4.43;;;;;;;21.09;46.79;95478.94;5008768;28;20522;-71
2022/09/06 09:18:02;;;;;;;4.40;3.97;;;;;;;21.24;44.75;95470.69;5008026;28;20277;-65
2022/09/06 09:20:28;;;;;;;4.88;4.40;;;;;;;21.36;44.63;95471.72;5006182;28;20262;-68
2022/09/06 09:22:54;;;;;;;4.57;4.00;;;;;;;21.42;44.57;95464.75;5009017;28;20223;-71
2022/09/06 09:25:23;;;;;;;4.80;4.38;;;;;;;21.57;44.58;95468.00;5005489;28;20234;-69
2022/09/06 09:27:56;;;;;;;7.35;4.90;;;;;;;21.75;44.37;95463.84;5000995;28;20268;-70
2022/09/06 09:30:26;;;;;;;5.72;4.57;;;;;;;21.83;43.98;95463.59;5005236;28;20700;-65
2022/09/06 09:32:52;;;;;;;4.78;4.32;;;;;;;21.92;43.86;95458.81;5016595;28;20284;-65
2022/09/06 09:35:36;;;;;;;5.43;4.88;;;;;;;21.96;43.59;95458.19;5008105;28;20226;-65
2022/09/06 09:38:06;;;;;;;8.40;5.93;;;;;;;22.20;42.90;95451.31;5006182;28;20227;-71
2022/09/06 09:40:38;;;;;;;6.93;5.47;;;;;;;22.23;43.09;95447.41;5007431;28;20326;-72
2022/09/06 09:43:12;;;;;;;6.22;5.30;;;;;;;22.49;42.81;95448.31;5002284;28;20239;-70
2022/09/06 09:45:37;;;;;;;6.10;5.57;;;;;;;22.50;42.99;95433.84;5005774;28;20214;-72
2022/09/06 09:48:22;;;;;;;6.10;4.53;;;;;;;22.54;42.71;95441.25;5007996;28;20214;-68
2022/09/06 09:50:48;;;;;;;6.45;4.68;;;;;;;22.83;43.90;95445.19;5000621;28;20329;-70
2022/09/06 09:53:16;;;;;;;6.22;5.72;;;;;;;22.94;42.59;95446.34;5002752;28;20953;-70
2022/09/06 09:55:43;;;;;;;6.93;6.30;;;;;;;22.90;42.20;95434.41;4999911;28;20225;-75
2022/09/06 09:58:27;;;;;;;5.50;5.00;;;;;;;23.01;42.27;95436.38;5002376;28;20235;-72
2022/09/06 10:01:16;;;;;;;5.47;4.70;;;;;;;22.77;41.09;95427.28;5003993;28;20336;-71
2022/09/06 10:03:42;;;;;;;5.20;4.82;;;;;;;22.78;41.64;95433.47;5001289;28;20220;-66
2022/09/06 10:06:12;;;;;;;5.90;4.40;;;;;;;23.07;39.77;95427.50;5006334;28;20215;-66
2022/09/06 10:08:41;;;;;;;4.57;4.18;;;;;;;22.98;39.70;95422.63;5006386;28;20223;-66
2022/09/06 10:11:11;;;;;;;7.10;4.07;;;;;;;23.36;39.06;95427.00;5000194;28;20306;-71
2022/09/06 10:13:36;;;;;;;4.10;3.70;;;;;;;23.50;40.00;95426.66;5008019;28;20341;-71
2022/09/06 10:16:02;;;;;;;4.90;4.50;;;;;;;23.55;37.31;95428.69;5008670;28;20245;-69
2022/09/06 10:18:40;;;;;;;4.63;4.10;;;;;;;23.61;37.24;95425.09;5004522;28;20211;-71
2022/09/06 10:21:22;;;;;;;5.15;4.75;;;;;;;23.85;36.83;95422.59;5006946;28;20230;-72
2022/09/06 10:24:03;;;;;;;4.53;4.07;;;;;;;24.05;35.34;95412.41;5007669;28;20892;-71
2022/09/06 10:26:55;;;;;;;4.32;3.92;;;;;;;24.24;34.95;95409.69;5008632;28;20280;-71
2022/09/06 10:29:37;;;;;;;4.50;4.10;;;;;;;24.32;36.18;95409.38;5001314;28;20254;-65
2022/09/06 10:32:23;;;;;;;4.32;3.92;;;;;;;24.55;35.58;95406.81;5008776;28;20226;-70
2022/09/06 10:35:08;;;;;;;3.75;3.40;;;;;;;24.84;35.94;95405.13;4994729;28;20227;-66
2022/09/06 10:37:45;;;;;;;4.15;3.30;;;;;;;24.94;32.76;95406.41;5003751;28;20282;-72
2022/09/06 10:40:39;;;;;;;3.83;3.13;;;;;;;25.06;31.24;95400.00;5007506;28;20234;-71
2022/09/06 10:43:07;;;;;;;2.67;2.47;;;;;;;25.10;31.24;95395.00;4955531;28;20277;-66
2022/09/06 10:45:51;;;;;;;3.17;2.95;;;;;;;25.37;31.60;95398.06;4963214;28;20268;-66
2022/09/06 10:48:35;;;;;;;2.80;2.60;;;;;;;25.46;28.91;95393.13;4953358;28;20232;-73
2022/09/06 10:51:24;;;;;;;2.65;2.45;;;;;;;25.54;28.80;95395.44;4949771;28;20224;-71
2022/09/06 10:54:07;;;;;;;2.65;2.45;;;;;;;25.75;28.01;95392.13;4955553;28;20964;-71
2022/09/06 10:56:42;;;;;;;3.65;2.58;;;;;;;25.84;28.79;95389.09;4971467;28;20232;-70
2022/09/06 10:59:10;;;;;;;3.15;2.92;;;;;;;25.92;29.99;95386.84;4948956;28;20226;-65
2022/09/06 11:01:45;;;;;;;3.70;3.30;;;;;;;26.15;30.17;95385.16;4954752;28;20247;-64
2022/09/06 11:04:25;;;;;;;3.30;3.10;;;;;;;26.16;30.72;95381.38;4952173;28;20623;-67
2022/09/06 11:06:56;;;;;;;3.10;2.90;;;;;;;26.28;29.90;95375.97;4939693;28;20246;-66
2022/09/06 11:09:31;;;;;;;2.25;2.15;;;;;;;26.23;27.03;95373.97;4946660;28;20223;-65
2022/09/06 11:12:09;;;;;;;3.08;2.88;;;;;;;25.23;28.79;95383.19;4958103;28;20259;-65
2022/09/06 11:14:37;;;;;;;3.40;2.95;;;;;;;25.57;28.74;95384.22;4943292;28;20264;-65
2022/09/06 11:17:12;;;;;;;3.20;2.90;;;;;;;25.81;27.06;95382.28;4946697;28;20617;-65
2022/09/06 11:19:55;;;;;;;3.22;2.60;;;;;;;26.00;26.81;95376.75;4972176;28;20275;-65
2022/09/06 11:22:52;;;;;;;2.95;2.70;;;;;;;26.08;27.75;95373.69;5010739;28;20234;-65
2022/09/06 11:25:59;;;;;;;2.53;2.38;;;;;;;26.20;27.20;95363.69;4970244;28;20935;-70
2022/09/06 11:28:34;;;;;;;2.67;2.28;;;;;;;26.50;24.88;95365.28;4927006;29;20599;-72
2022/09/06 11:31:01;;;;;;;2.13;2.03;;;;;;;26.56;25.13;95365.16;4912873;29;20228;-73
2022/09/06 11:33:30;;;;;;;3.97;2.40;;;;;;;26.76;26.03;95362.00;4913665;29;20222;-72
2022/09/06 11:36:24;;;;;;;3.20;2.90;;;;;;;27.01;28.08;95364.28;4897940;29;20234;-70
2022/09/06 11:38:58;;;;;;;3.17;2.97;;;;;;;27.42;26.80;95362.19;4913188;29;20253;-71
2022/09/06 11:41:30;;;;;;;3.10;2.80;;;;;;;27.67;26.45;95358.22;4898451;29;20677;-71
2022/09/06 11:43:56;;;;;;;5.32;3.10;;;;;;;27.65;26.50;95363.03;4897323;29;20234;-71
2022/09/06 11:46:33;;;;;;;3.72;3.33;;;;;;;27.64;26.28;95356.81;4931000;29;20326;-67
2022/09/06 11:49:05;;;;;;;3.05;2.83;;;;;;;27.59;26.10;95351.34;4912769;29;20246;-67